sensor_id;sensor_type;location;lat;lon;timestamp;temperature;humidity
47174;DHT22;36730;49.036;9.094;2022-10-31T00:01:00;25.70;67.90
47174;DHT22;36730;49.036;9.094;2022-10-31T00:03:26;25.70;68.40
47174;DHT22;36730;49.036;9.094;2022-10-31T00:05:52;25.80;68.40
47174;DHT22;36730;49.036;9.094;2022-10-31T00:08:18;25.70;67.90
47174;DHT22;36730;49.036;9.094;2022-10-31T00:10:45;25.70;68.80
47174;DHT22;36730;49.036;9.094;2022-10-31T00:13:12;25.70;68.60
47174;DHT22;36730;49.036;9.094;2022-10-31T00:15:39;25.70;68.30
47174;DHT22;36730;49.036;9.094;2022-10-31T00:18:06;25.70;68.50
47174;DHT22;36730;49.036;9.094;2022-10-31T00:20:32;25.70;69.80
47174;DHT22;36730;49.036;9.094;2022-10-31T00:22:59;25.70;69.50
47174;DHT22;36730;49.036;9.094;2022-10-31T00:25:25;25.70;68.70
47174;DHT22;36730;49.036;9.094;2022-10-31T00:27:51;25.70;69.30
47174;DHT22;36730;49.036;9.094;2022-10-31T00:30:17;25.70;70.70
47174;DHT22;36730;49.036;9.094;2022-10-31T00:32:42;25.70;68.70
47174;DHT22;36730;49.036;9.094;2022-10-31T00:35:08;25.70;70.00
47174;DHT22;36730;49.036;9.094;2022-10-31T00:37:33;25.70;68.80
47174;DHT22;36730;49.036;9.094;2022-10-31T00:39:59;25.70;68.60
47174;DHT22;36730;49.036;9.094;2022-10-31T00:42:24;25.70;69.20
47174;DHT22;36730;49.036;9.094;2022-10-31T00:44:50;25.70;68.50
47174;DHT22;36730;49.036;9.094;2022-10-31T00:47:15;25.70;70.00
47174;DHT22;36730;49.036;9.094;2022-10-31T00:49:41;25.70;70.30
47174;DHT22;36730;49.036;9.094;2022-10-31T00:52:07;25.70;70.50
47174;DHT22;36730;49.036;9.094;2022-10-31T00:54:32;25.70;70.60
47174;DHT22;36730;49.036;9.094;2022-10-31T00:56:58;25.70;69.00
47174;DHT22;36730;49.036;9.094;2022-10-31T00:59:23;25.70;68.00
47174;DHT22;36730;49.036;9.094;2022-10-31T01:01:49;25.70;68.30
47174;DHT22;36730;49.036;9.094;2022-10-31T01:04:15;25.60;68.90
47174;DHT22;36730;49.036;9.094;2022-10-31T01:06:41;25.70;68.50
47174;DHT22;36730;49.036;9.094;2022-10-31T01:09:07;25.60;68.30
47174;DHT22;36730;49.036;9.094;2022-10-31T01:11:32;25.70;68.80
47174;DHT22;36730;49.036;9.094;2022-10-31T01:13:58;25.70;68.80
47174;DHT22;36730;49.036;9.094;2022-10-31T01:16:25;25.70;69.30
47174;DHT22;36730;49.036;9.094;2022-10-31T01:18:51;25.70;69.00
47174;DHT22;36730;49.036;9.094;2022-10-31T01:21:20;25.70;71.00
47174;DHT22;36730;49.036;9.094;2022-10-31T01:23:46;25.60;70.50
47174;DHT22;36730;49.036;9.094;2022-10-31T01:26:14;25.60;68.10
47174;DHT22;36730;49.036;9.094;2022-10-31T01:29:01;25.60;69.50
47174;DHT22;36730;49.036;9.094;2022-10-31T01:31:34;25.50;67.10
47174;DHT22;36730;49.036;9.094;2022-10-31T01:34:00;25.60;68.40
47174;DHT22;36730;49.036;9.094;2022-10-31T01:36:34;25.60;68.90
47174;DHT22;36730;49.036;9.094;2022-10-31T01:39:06;25.60;69.30
47174;DHT22;36730;49.036;9.094;2022-10-31T01:41:34;25.60;68.70
47174;DHT22;36730;49.036;9.094;2022-10-31T01:49:16;25.60;69.30
47174;DHT22;36730;49.036;9.094;2022-10-31T01:51:50;25.50;68.40
47174;DHT22;36730;49.036;9.094;2022-10-31T01:54:19;25.60;67.40
47174;DHT22;36730;49.036;9.094;2022-10-31T01:56:49;25.50;68.10
47174;DHT22;36730;49.036;9.094;2022-10-31T01:59:18;25.50;68.20
47174;DHT22;36730;49.036;9.094;2022-10-31T02:01:46;25.60;68.70
47174;DHT22;36730;49.036;9.094;2022-10-31T02:04:12;25.60;68.20
47174;DHT22;36730;49.036;9.094;2022-10-31T02:06:39;25.60;68.70
47174;DHT22;36730;49.036;9.094;2022-10-31T02:09:06;25.60;68.10
47174;DHT22;36730;49.036;9.094;2022-10-31T02:11:34;25.50;68.40
47174;DHT22;36730;49.036;9.094;2022-10-31T02:14:02;25.60;67.30
47174;DHT22;36730;49.036;9.094;2022-10-31T02:16:28;25.50;67.30
47174;DHT22;36730;49.036;9.094;2022-10-31T02:18:54;25.50;68.10
47174;DHT22;36730;49.036;9.094;2022-10-31T02:27:12;25.50;68.40
47174;DHT22;36730;49.036;9.094;2022-10-31T02:32:27;25.50;69.10
47174;DHT22;36730;49.036;9.094;2022-10-31T02:35:08;25.50;68.70
47174;DHT22;36730;49.036;9.094;2022-10-31T02:40:18;25.50;67.50
47174;DHT22;36730;49.036;9.094;2022-10-31T02:43:12;25.40;67.90
47174;DHT22;36730;49.036;9.094;2022-10-31T02:45:54;25.40;67.00
47174;DHT22;36730;49.036;9.094;2022-10-31T02:48:26;25.40;67.30
47174;DHT22;36730;49.036;9.094;2022-10-31T02:50:59;25.40;67.50
47174;DHT22;36730;49.036;9.094;2022-10-31T02:53:25;25.40;67.50
47174;DHT22;36730;49.036;9.094;2022-10-31T02:55:58;25.40;67.60
47174;DHT22;36730;49.036;9.094;2022-10-31T02:58:28;25.40;68.20
47174;DHT22;36730;49.036;9.094;2022-10-31T03:09:55;25.40;66.30
47174;DHT22;36730;49.036;9.094;2022-10-31T03:12:49;25.40;66.30
47174;DHT22;36730;49.036;9.094;2022-10-31T03:20:26;25.30;66.80
47174;DHT22;36730;49.036;9.094;2022-10-31T03:22:55;25.30;66.50
47174;DHT22;36730;49.036;9.094;2022-10-31T03:25:22;25.30;66.40
47174;DHT22;36730;49.036;9.094;2022-10-31T03:27:49;25.30;66.60
47174;DHT22;36730;49.036;9.094;2022-10-31T03:30:16;25.30;66.60
47174;DHT22;36730;49.036;9.094;2022-10-31T03:32:50;25.30;66.50
47174;DHT22;36730;49.036;9.094;2022-10-31T03:35:19;25.30;66.20
47174;DHT22;36730;49.036;9.094;2022-10-31T03:37:47;25.20;66.20
47174;DHT22;36730;49.036;9.094;2022-10-31T03:40:14;25.20;66.20
47174;DHT22;36730;49.036;9.094;2022-10-31T03:42:45;25.20;66.20
47174;DHT22;36730;49.036;9.094;2022-10-31T03:45:15;25.20;66.20
47174;DHT22;36730;49.036;9.094;2022-10-31T03:47:43;25.20;66.20
47174;DHT22;36730;49.036;9.094;2022-10-31T03:50:10;25.20;66.20
47174;DHT22;36730;49.036;9.094;2022-10-31T03:52:58;25.20;66.10
47174;DHT22;36730;49.036;9.094;2022-10-31T03:55:30;25.20;65.80
47174;DHT22;36730;49.036;9.094;2022-10-31T03:58:06;25.20;66.10
47174;DHT22;36730;49.036;9.094;2022-10-31T04:00:34;25.20;66.10
47174;DHT22;36730;49.036;9.094;2022-10-31T04:03:06;25.20;65.90
47174;DHT22;36730;49.036;9.094;2022-10-31T04:05:33;25.20;66.10
47174;DHT22;36730;49.036;9.094;2022-10-31T04:08:01;25.20;66.00
47174;DHT22;36730;49.036;9.094;2022-10-31T04:10:28;25.20;65.60
47174;DHT22;36730;49.036;9.094;2022-10-31T04:12:59;25.20;65.50
47174;DHT22;36730;49.036;9.094;2022-10-31T04:15:27;25.20;65.30
47174;DHT22;36730;49.036;9.094;2022-10-31T04:17:56;25.20;65.20
47174;DHT22;36730;49.036;9.094;2022-10-31T04:20:37;25.20;64.70
47174;DHT22;36730;49.036;9.094;2022-10-31T04:23:04;25.20;65.10
47174;DHT22;36730;49.036;9.094;2022-10-31T04:25:29;25.10;64.70
47174;DHT22;36730;49.036;9.094;2022-10-31T04:27:55;25.20;65.20
47174;DHT22;36730;49.036;9.094;2022-10-31T04:30:21;25.10;65.10
47174;DHT22;36730;49.036;9.094;2022-10-31T04:32:47;25.10;64.80
47174;DHT22;36730;49.036;9.094;2022-10-31T04:35:13;25.10;64.50
47174;DHT22;36730;49.036;9.094;2022-10-31T04:37:39;25.10;64.80
47174;DHT22;36730;49.036;9.094;2022-10-31T04:40:04;25.10;64.80
47174;DHT22;36730;49.036;9.094;2022-10-31T04:42:30;25.10;64.50
47174;DHT22;36730;49.036;9.094;2022-10-31T04:44:56;25.10;64.60
47174;DHT22;36730;49.036;9.094;2022-10-31T04:47:21;25.10;64.60
47174;DHT22;36730;49.036;9.094;2022-10-31T04:49:47;25.10;64.50
47174;DHT22;36730;49.036;9.094;2022-10-31T04:52:13;25.00;64.50
47174;DHT22;36730;49.036;9.094;2022-10-31T04:54:38;25.00;64.50
47174;DHT22;36730;49.036;9.094;2022-10-31T04:57:04;25.00;64.40
47174;DHT22;36730;49.036;9.094;2022-10-31T04:59:29;25.00;64.60
47174;DHT22;36730;49.036;9.094;2022-10-31T05:01:55;25.00;64.70
47174;DHT22;36730;49.036;9.094;2022-10-31T05:04:21;25.00;66.30
47174;DHT22;36730;49.036;9.094;2022-10-31T05:06:46;25.00;66.00
47174;DHT22;36730;49.036;9.094;2022-10-31T05:09:12;25.00;66.10
47174;DHT22;36730;49.036;9.094;2022-10-31T05:11:37;25.00;66.00
47174;DHT22;36730;49.036;9.094;2022-10-31T05:14:03;24.90;66.20
47174;DHT22;36730;49.036;9.094;2022-10-31T05:16:28;25.00;66.10
47174;DHT22;36730;49.036;9.094;2022-10-31T05:18:54;24.90;66.30
47174;DHT22;36730;49.036;9.094;2022-10-31T05:21:20;24.90;66.70
47174;DHT22;36730;49.036;9.094;2022-10-31T05:23:45;25.00;66.60
47174;DHT22;36730;49.036;9.094;2022-10-31T05:26:11;24.90;66.70
47174;DHT22;36730;49.036;9.094;2022-10-31T05:28:36;25.00;66.80
47174;DHT22;36730;49.036;9.094;2022-10-31T05:31:02;25.00;66.80
47174;DHT22;36730;49.036;9.094;2022-10-31T05:33:28;25.00;67.20
47174;DHT22;36730;49.036;9.094;2022-10-31T05:35:54;25.00;67.00
47174;DHT22;36730;49.036;9.094;2022-10-31T05:38:19;25.00;67.40
47174;DHT22;36730;49.036;9.094;2022-10-31T05:40:45;25.00;67.30
47174;DHT22;36730;49.036;9.094;2022-10-31T05:43:10;25.10;68.40
47174;DHT22;36730;49.036;9.094;2022-10-31T05:45:36;25.00;67.20
47174;DHT22;36730;49.036;9.094;2022-10-31T05:48:02;25.00;67.60
47174;DHT22;36730;49.036;9.094;2022-10-31T05:50:29;25.00;67.70
47174;DHT22;36730;49.036;9.094;2022-10-31T05:52:57;25.00;67.80
47174;DHT22;36730;49.036;9.094;2022-10-31T05:55:23;25.00;68.10
47174;DHT22;36730;49.036;9.094;2022-10-31T05:57:49;25.00;68.60
47174;DHT22;36730;49.036;9.094;2022-10-31T06:00:14;25.00;68.70
47174;DHT22;36730;49.036;9.094;2022-10-31T06:02:40;25.00;69.00
47174;DHT22;36730;49.036;9.094;2022-10-31T06:05:05;25.00;68.80
47174;DHT22;36730;49.036;9.094;2022-10-31T06:07:34;25.00;68.90
47174;DHT22;36730;49.036;9.094;2022-10-31T06:10:02;25.00;68.70
47174;DHT22;36730;49.036;9.094;2022-10-31T06:12:28;25.00;67.80
47174;DHT22;36730;49.036;9.094;2022-10-31T06:14:53;25.10;67.80
47174;DHT22;36730;49.036;9.094;2022-10-31T06:17:19;25.10;67.10
47174;DHT22;36730;49.036;9.094;2022-10-31T06:19:44;25.10;67.10
47174;DHT22;36730;49.036;9.094;2022-10-31T06:22:10;25.10;66.80
47174;DHT22;36730;49.036;9.094;2022-10-31T06:24:38;25.20;67.60
47174;DHT22;36730;49.036;9.094;2022-10-31T06:27:04;25.20;67.70
47174;DHT22;36730;49.036;9.094;2022-10-31T06:29:30;25.20;67.20
47174;DHT22;36730;49.036;9.094;2022-10-31T06:31:56;25.20;67.60
47174;DHT22;36730;49.036;9.094;2022-10-31T06:34:22;25.20;67.30
47174;DHT22;36730;49.036;9.094;2022-10-31T06:36:47;25.30;67.60
47174;DHT22;36730;49.036;9.094;2022-10-31T06:39:13;25.30;67.60
47174;DHT22;36730;49.036;9.094;2022-10-31T06:41:39;25.30;67.70
47174;DHT22;36730;49.036;9.094;2022-10-31T06:44:06;25.30;67.00
47174;DHT22;36730;49.036;9.094;2022-10-31T06:46:31;25.30;67.20
47174;DHT22;36730;49.036;9.094;2022-10-31T06:48:57;25.30;67.60
47174;DHT22;36730;49.036;9.094;2022-10-31T06:51:22;25.30;67.50
47174;DHT22;36730;49.036;9.094;2022-10-31T06:53:48;25.30;67.70
47174;DHT22;36730;49.036;9.094;2022-10-31T06:56:14;25.30;67.10
47174;DHT22;36730;49.036;9.094;2022-10-31T06:58:39;25.30;67.30
47174;DHT22;36730;49.036;9.094;2022-10-31T07:01:05;25.30;67.20
47174;DHT22;36730;49.036;9.094;2022-10-31T07:03:30;25.20;67.30
47174;DHT22;36730;49.036;9.094;2022-10-31T07:05:56;25.20;65.10
47174;DHT22;36730;49.036;9.094;2022-10-31T07:08:22;25.10;63.50
47174;DHT22;36730;49.036;9.094;2022-10-31T07:10:53;25.00;63.90
47174;DHT22;36730;49.036;9.094;2022-10-31T07:13:20;24.90;62.00
47174;DHT22;36730;49.036;9.094;2022-10-31T07:15:51;24.80;62.60
47174;DHT22;36730;49.036;9.094;2022-10-31T07:18:17;24.70;63.30
47174;DHT22;36730;49.036;9.094;2022-10-31T07:20:43;24.60;62.50
47174;DHT22;36730;49.036;9.094;2022-10-31T07:23:10;24.50;62.10
47174;DHT22;36730;49.036;9.094;2022-10-31T07:25:36;24.40;62.10
47174;DHT22;36730;49.036;9.094;2022-10-31T07:28:02;24.30;62.50
47174;DHT22;36730;49.036;9.094;2022-10-31T07:30:27;24.20;62.40
47174;DHT22;36730;49.036;9.094;2022-10-31T07:32:53;24.20;62.60
47174;DHT22;36730;49.036;9.094;2022-10-31T07:35:24;24.10;62.70
47174;DHT22;36730;49.036;9.094;2022-10-31T07:37:50;24.00;62.60
47174;DHT22;36730;49.036;9.094;2022-10-31T07:40:16;24.00;64.40
47174;DHT22;36730;49.036;9.094;2022-10-31T07:42:43;23.90;63.60
47174;DHT22;36730;49.036;9.094;2022-10-31T07:45:11;24.00;63.90
47174;DHT22;36730;49.036;9.094;2022-10-31T07:47:41;23.90;63.60
47174;DHT22;36730;49.036;9.094;2022-10-31T07:50:08;24.00;64.00
47174;DHT22;36730;49.036;9.094;2022-10-31T07:52:34;23.90;63.90
47174;DHT22;36730;49.036;9.094;2022-10-31T07:54:59;23.90;64.20
47174;DHT22;36730;49.036;9.094;2022-10-31T07:57:25;23.90;64.30
47174;DHT22;36730;49.036;9.094;2022-10-31T07:59:51;23.90;64.50
47174;DHT22;36730;49.036;9.094;2022-10-31T08:02:17;23.80;64.50
47174;DHT22;36730;49.036;9.094;2022-10-31T08:04:43;23.80;65.80
47174;DHT22;36730;49.036;9.094;2022-10-31T08:07:08;23.80;65.50
47174;DHT22;36730;49.036;9.094;2022-10-31T08:09:34;23.80;66.10
47174;DHT22;36730;49.036;9.094;2022-10-31T08:12:00;23.70;65.80
47174;DHT22;36730;49.036;9.094;2022-10-31T08:14:26;23.70;65.80
47174;DHT22;36730;49.036;9.094;2022-10-31T08:16:53;23.80;65.70
47174;DHT22;36730;49.036;9.094;2022-10-31T08:19:18;23.70;66.10
47174;DHT22;36730;49.036;9.094;2022-10-31T08:21:44;23.70;66.30
47174;DHT22;36730;49.036;9.094;2022-10-31T08:24:09;23.70;66.60
47174;DHT22;36730;49.036;9.094;2022-10-31T08:26:35;23.70;66.40
47174;DHT22;36730;49.036;9.094;2022-10-31T08:29:01;23.70;66.30
47174;DHT22;36730;49.036;9.094;2022-10-31T08:31:28;23.70;66.50
47174;DHT22;36730;49.036;9.094;2022-10-31T08:33:54;23.70;67.50
47174;DHT22;36730;49.036;9.094;2022-10-31T08:36:20;23.70;67.70
47174;DHT22;36730;49.036;9.094;2022-10-31T08:38:47;23.70;67.40
47174;DHT22;36730;49.036;9.094;2022-10-31T08:41:13;23.80;67.60
47174;DHT22;36730;49.036;9.094;2022-10-31T08:43:38;23.80;67.60
47174;DHT22;36730;49.036;9.094;2022-10-31T08:46:04;23.80;68.00
47174;DHT22;36730;49.036;9.094;2022-10-31T08:48:30;23.70;67.60
47174;DHT22;36730;49.036;9.094;2022-10-31T08:50:58;23.80;67.80
47174;DHT22;36730;49.036;9.094;2022-10-31T08:53:23;23.80;67.60
47174;DHT22;36730;49.036;9.094;2022-10-31T08:55:49;23.80;68.10
47174;DHT22;36730;49.036;9.094;2022-10-31T08:58:17;23.80;67.90
47174;DHT22;36730;49.036;9.094;2022-10-31T09:00:44;23.80;67.90
47174;DHT22;36730;49.036;9.094;2022-10-31T09:03:18;23.80;67.80
47174;DHT22;36730;49.036;9.094;2022-10-31T09:05:44;23.90;67.90
47174;DHT22;36730;49.036;9.094;2022-10-31T09:08:11;23.90;68.70
47174;DHT22;36730;49.036;9.094;2022-10-31T09:10:37;23.90;69.00
47174;DHT22;36730;49.036;9.094;2022-10-31T09:13:05;23.90;69.10
47174;DHT22;36730;49.036;9.094;2022-10-31T09:15:34;23.90;69.00
47174;DHT22;36730;49.036;9.094;2022-10-31T09:17:59;24.00;69.50
47174;DHT22;36730;49.036;9.094;2022-10-31T09:20:30;24.00;69.00
47174;DHT22;36730;49.036;9.094;2022-10-31T09:23:03;24.00;69.00
47174;DHT22;36730;49.036;9.094;2022-10-31T09:25:29;24.00;69.00
47174;DHT22;36730;49.036;9.094;2022-10-31T09:27:57;24.00;69.50
47174;DHT22;36730;49.036;9.094;2022-10-31T09:30:23;24.00;69.70
47174;DHT22;36730;49.036;9.094;2022-10-31T09:32:58;24.00;69.70
47174;DHT22;36730;49.036;9.094;2022-10-31T09:35:24;24.00;69.70
47174;DHT22;36730;49.036;9.094;2022-10-31T09:37:57;24.00;70.10
47174;DHT22;36730;49.036;9.094;2022-10-31T09:40:37;24.00;69.70
47174;DHT22;36730;49.036;9.094;2022-10-31T09:43:24;24.00;69.70
47174;DHT22;36730;49.036;9.094;2022-10-31T09:45:56;24.00;69.20
47174;DHT22;36730;49.036;9.094;2022-10-31T09:51:20;24.10;70.50
47174;DHT22;36730;49.036;9.094;2022-10-31T09:53:54;24.10;69.30
47174;DHT22;36730;49.036;9.094;2022-10-31T09:56:23;24.10;69.50
47174;DHT22;36730;49.036;9.094;2022-10-31T09:58:53;24.10;69.40
47174;DHT22;36730;49.036;9.094;2022-10-31T10:01:48;24.10;69.50
47174;DHT22;36730;49.036;9.094;2022-10-31T10:07:20;24.20;69.90
47174;DHT22;36730;49.036;9.094;2022-10-31T10:09:46;24.20;70.00
47174;DHT22;36730;49.036;9.094;2022-10-31T10:15:41;24.20;72.00
47174;DHT22;36730;49.036;9.094;2022-10-31T10:21:25;24.20;71.80
47174;DHT22;36730;49.036;9.094;2022-10-31T10:26:40;24.30;71.60
47174;DHT22;36730;49.036;9.094;2022-10-31T10:29:50;24.30;71.90
47174;DHT22;36730;49.036;9.094;2022-10-31T10:32:23;24.30;71.60
47174;DHT22;36730;49.036;9.094;2022-10-31T10:34:59;24.30;71.80
47174;DHT22;36730;49.036;9.094;2022-10-31T10:37:32;24.40;71.90
47174;DHT22;36730;49.036;9.094;2022-10-31T10:40:13;24.30;71.70
47174;DHT22;36730;49.036;9.094;2022-10-31T10:42:44;24.40;72.60
47174;DHT22;36730;49.036;9.094;2022-10-31T10:45:29;24.40;72.30
47174;DHT22;36730;49.036;9.094;2022-10-31T10:48:16;24.30;73.10
47174;DHT22;36730;49.036;9.094;2022-10-31T10:50:48;24.40;73.50
47174;DHT22;36730;49.036;9.094;2022-10-31T10:56:03;24.40;73.30
47174;DHT22;36730;49.036;9.094;2022-10-31T10:58:29;24.40;74.60
47174;DHT22;36730;49.036;9.094;2022-10-31T11:00:55;24.40;74.70
47174;DHT22;36730;49.036;9.094;2022-10-31T11:03:21;24.40;73.70
47174;DHT22;36730;49.036;9.094;2022-10-31T11:05:54;24.40;73.70
47174;DHT22;36730;49.036;9.094;2022-10-31T11:08:34;24.40;75.00
47174;DHT22;36730;49.036;9.094;2022-10-31T11:11:11;24.40;74.30
47174;DHT22;36730;49.036;9.094;2022-10-31T11:13:41;24.40;74.00
47174;DHT22;36730;49.036;9.094;2022-10-31T11:16:09;24.40;73.90
47174;DHT22;36730;49.036;9.094;2022-10-31T11:18:42;24.40;75.00
47174;DHT22;36730;49.036;9.094;2022-10-31T11:21:21;24.40;74.20
47174;DHT22;36730;49.036;9.094;2022-10-31T11:23:47;24.40;73.80
47174;DHT22;36730;49.036;9.094;2022-10-31T11:26:20;24.50;74.20
47174;DHT22;36730;49.036;9.094;2022-10-31T11:28:57;24.50;74.30
47174;DHT22;36730;49.036;9.094;2022-10-31T11:31:23;24.50;74.30
47174;DHT22;36730;49.036;9.094;2022-10-31T11:34:25;24.40;74.30
47174;DHT22;36730;49.036;9.094;2022-10-31T11:36:44;24.40;74.40
47174;DHT22;36730;49.036;9.094;2022-10-31T11:39:18;24.50;75.00
47174;DHT22;36730;49.036;9.094;2022-10-31T11:41:45;24.50;74.60
47174;DHT22;36730;49.036;9.094;2022-10-31T11:44:13;24.50;74.80
47174;DHT22;36730;49.036;9.094;2022-10-31T11:46:43;24.40;74.90
47174;DHT22;36730;49.036;9.094;2022-10-31T11:51:52;24.40;75.00
47174;DHT22;36730;49.036;9.094;2022-10-31T11:54:25;24.50;74.80
47174;DHT22;36730;49.036;9.094;2022-10-31T11:56:52;24.50;74.80
47174;DHT22;36730;49.036;9.094;2022-10-31T12:01:49;24.40;74.50
47174;DHT22;36730;49.036;9.094;2022-10-31T12:04:15;24.40;74.60
47174;DHT22;36730;49.036;9.094;2022-10-31T12:06:43;24.50;75.40
47174;DHT22;36730;49.036;9.094;2022-10-31T12:15:30;24.50;76.10
47174;DHT22;36730;49.036;9.094;2022-10-31T12:37:23;24.70;74.70
47174;DHT22;36730;49.036;9.094;2022-10-31T12:43:15;24.80;74.40
47174;DHT22;36730;49.036;9.094;2022-10-31T12:45:56;24.80;74.30
47174;DHT22;36730;49.036;9.094;2022-10-31T13:01:47;24.90;76.90
47174;DHT22;36730;49.036;9.094;2022-10-31T13:06:49;24.90;75.60
47174;DHT22;36730;49.036;9.094;2022-10-31T13:09:25;25.00;75.60
47174;DHT22;36730;49.036;9.094;2022-10-31T13:11:59;25.00;75.30
47174;DHT22;36730;49.036;9.094;2022-10-31T13:14:30;25.00;76.40
47174;DHT22;36730;49.036;9.094;2022-10-31T13:16:59;25.00;76.30
47174;DHT22;36730;49.036;9.094;2022-10-31T13:19:39;25.00;75.70
47174;DHT22;36730;49.036;9.094;2022-10-31T13:22:15;25.10;75.70
47174;DHT22;36730;49.036;9.094;2022-10-31T13:27:57;25.10;75.80
47174;DHT22;36730;49.036;9.094;2022-10-31T13:30:26;25.10;76.80
47174;DHT22;36730;49.036;9.094;2022-10-31T13:35:51;25.20;76.20
47174;DHT22;36730;49.036;9.094;2022-10-31T13:46:37;25.20;78.40
47174;DHT22;36730;49.036;9.094;2022-10-31T13:49:18;25.30;76.70
47174;DHT22;36730;49.036;9.094;2022-10-31T13:51:46;25.30;77.20
47174;DHT22;36730;49.036;9.094;2022-10-31T13:54:32;25.40;76.50
47174;DHT22;36730;49.036;9.094;2022-10-31T13:56:58;25.40;77.60
47174;DHT22;36730;49.036;9.094;2022-10-31T13:59:25;25.40;76.90
47174;DHT22;36730;49.036;9.094;2022-10-31T14:02:00;25.40;77.00
47174;DHT22;36730;49.036;9.094;2022-10-31T14:04:37;25.50;76.70
47174;DHT22;36730;49.036;9.094;2022-10-31T14:07:12;25.50;76.60
47174;DHT22;36730;49.036;9.094;2022-10-31T14:09:57;25.50;77.60
47174;DHT22;36730;49.036;9.094;2022-10-31T14:12:42;25.60;76.60
47174;DHT22;36730;49.036;9.094;2022-10-31T14:15:24;25.60;76.60
47174;DHT22;36730;49.036;9.094;2022-10-31T14:18:03;25.60;76.00
47174;DHT22;36730;49.036;9.094;2022-10-31T14:20:41;25.50;75.20
47174;DHT22;36730;49.036;9.094;2022-10-31T14:23:34;25.40;75.10
47174;DHT22;36730;49.036;9.094;2022-10-31T14:26:29;25.40;75.80
47174;DHT22;36730;49.036;9.094;2022-10-31T14:31:45;25.40;76.00
47174;DHT22;36730;49.036;9.094;2022-10-31T14:40:04;25.40;76.80
47174;DHT22;36730;49.036;9.094;2022-10-31T14:42:52;25.40;77.30
47174;DHT22;36730;49.036;9.094;2022-10-31T14:46:01;25.50;76.50
47174;DHT22;36730;49.036;9.094;2022-10-31T14:48:50;25.40;76.40
47174;DHT22;36730;49.036;9.094;2022-10-31T14:51:21;25.40;76.80
47174;DHT22;36730;49.036;9.094;2022-10-31T14:53:52;25.40;76.90
47174;DHT22;36730;49.036;9.094;2022-10-31T14:56:25;25.40;77.10
47174;DHT22;36730;49.036;9.094;2022-10-31T14:58:53;25.40;77.30
47174;DHT22;36730;49.036;9.094;2022-10-31T15:01:29;25.30;77.00
47174;DHT22;36730;49.036;9.094;2022-10-31T15:04:05;25.40;77.40
47174;DHT22;36730;49.036;9.094;2022-10-31T15:06:45;25.30;77.30
47174;DHT22;36730;49.036;9.094;2022-10-31T15:09:33;25.30;77.70
47174;DHT22;36730;49.036;9.094;2022-10-31T15:12:01;25.20;77.80
47174;DHT22;36730;49.036;9.094;2022-10-31T15:14:40;25.20;77.90
47174;DHT22;36730;49.036;9.094;2022-10-31T15:17:05;25.20;78.10
47174;DHT22;36730;49.036;9.094;2022-10-31T15:19:32;25.20;78.20
47174;DHT22;36730;49.036;9.094;2022-10-31T15:22:00;25.10;78.30
47174;DHT22;36730;49.036;9.094;2022-10-31T15:24:35;25.10;78.40
47174;DHT22;36730;49.036;9.094;2022-10-31T15:27:01;25.10;78.60
47174;DHT22;36730;49.036;9.094;2022-10-31T15:29:27;25.10;79.00
47174;DHT22;36730;49.036;9.094;2022-10-31T15:32:18;25.10;80.00
47174;DHT22;36730;49.036;9.094;2022-10-31T15:34:44;25.10;79.40
47174;DHT22;36730;49.036;9.094;2022-10-31T15:37:14;25.10;78.90
47174;DHT22;36730;49.036;9.094;2022-10-31T15:39:41;25.10;78.90
47174;DHT22;36730;49.036;9.094;2022-10-31T15:42:20;25.10;79.20
47174;DHT22;36730;49.036;9.094;2022-10-31T15:44:52;25.10;80.40
47174;DHT22;36730;49.036;9.094;2022-10-31T15:47:20;25.10;79.70
47174;DHT22;36730;49.036;9.094;2022-10-31T15:49:50;25.10;79.90
47174;DHT22;36730;49.036;9.094;2022-10-31T15:57:52;25.20;80.60
47174;DHT22;36730;49.036;9.094;2022-10-31T16:00:25;25.20;80.10
47174;DHT22;36730;49.036;9.094;2022-10-31T16:05:54;25.20;80.10
47174;DHT22;36730;49.036;9.094;2022-10-31T16:11:24;25.30;80.40
47174;DHT22;36730;49.036;9.094;2022-10-31T16:14:02;25.30;79.40
47174;DHT22;36730;49.036;9.094;2022-10-31T16:16:29;25.30;78.90
47174;DHT22;36730;49.036;9.094;2022-10-31T16:18:56;25.30;79.30
47174;DHT22;36730;49.036;9.094;2022-10-31T16:21:26;25.30;79.20
47174;DHT22;36730;49.036;9.094;2022-10-31T16:23:57;25.30;80.00
47174;DHT22;36730;49.036;9.094;2022-10-31T16:26:24;25.30;79.20
47174;DHT22;36730;49.036;9.094;2022-10-31T16:28:55;25.20;78.90
47174;DHT22;36730;49.036;9.094;2022-10-31T16:31:30;25.20;79.20
47174;DHT22;36730;49.036;9.094;2022-10-31T16:34:14;25.10;79.30
47174;DHT22;36730;49.036;9.094;2022-10-31T16:36:41;25.20;79.30
47174;DHT22;36730;49.036;9.094;2022-10-31T16:39:07;25.20;79.50
47174;DHT22;36730;49.036;9.094;2022-10-31T16:41:41;25.20;78.90
47174;DHT22;36730;49.036;9.094;2022-10-31T16:44:26;25.20;78.80
47174;DHT22;36730;49.036;9.094;2022-10-31T16:47:08;25.20;78.70
47174;DHT22;36730;49.036;9.094;2022-10-31T16:49:34;25.10;78.60
47174;DHT22;36730;49.036;9.094;2022-10-31T16:52:00;25.10;78.80
47174;DHT22;36730;49.036;9.094;2022-10-31T16:54:25;25.10;78.70
47174;DHT22;36730;49.036;9.094;2022-10-31T16:56:53;25.10;78.60
47174;DHT22;36730;49.036;9.094;2022-10-31T16:59:18;25.00;78.60
47174;DHT22;36730;49.036;9.094;2022-10-31T17:01:46;25.00;78.50
47174;DHT22;36730;49.036;9.094;2022-10-31T17:04:14;25.00;79.00
47174;DHT22;36730;49.036;9.094;2022-10-31T17:06:40;24.90;78.80
47174;DHT22;36730;49.036;9.094;2022-10-31T17:09:06;24.90;78.70
47174;DHT22;36730;49.036;9.094;2022-10-31T17:11:33;24.90;78.50
47174;DHT22;36730;49.036;9.094;2022-10-31T17:13:59;24.90;78.50
47174;DHT22;36730;49.036;9.094;2022-10-31T17:16:25;24.80;78.40
47174;DHT22;36730;49.036;9.094;2022-10-31T17:18:50;24.90;78.70
47174;DHT22;36730;49.036;9.094;2022-10-31T17:21:21;24.80;78.50
47174;DHT22;36730;49.036;9.094;2022-10-31T17:23:48;24.90;78.40
47174;DHT22;36730;49.036;9.094;2022-10-31T17:26:14;24.90;78.50
47174;DHT22;36730;49.036;9.094;2022-10-31T17:28:40;24.90;77.70
47174;DHT22;36730;49.036;9.094;2022-10-31T17:31:06;24.90;78.00
47174;DHT22;36730;49.036;9.094;2022-10-31T17:33:31;24.90;78.80
47174;DHT22;36730;49.036;9.094;2022-10-31T17:35:57;25.00;78.30
47174;DHT22;36730;49.036;9.094;2022-10-31T17:38:22;25.00;77.80
47174;DHT22;36730;49.036;9.094;2022-10-31T17:40:48;25.00;78.40
47174;DHT22;36730;49.036;9.094;2022-10-31T17:43:14;25.00;78.60
47174;DHT22;36730;49.036;9.094;2022-10-31T17:45:40;25.00;77.40
47174;DHT22;36730;49.036;9.094;2022-10-31T17:48:08;25.10;78.30
47174;DHT22;36730;49.036;9.094;2022-10-31T17:50:33;25.10;78.00
47174;DHT22;36730;49.036;9.094;2022-10-31T17:52:59;25.10;77.50
47174;DHT22;36730;49.036;9.094;2022-10-31T17:55:25;25.10;77.40
47174;DHT22;36730;49.036;9.094;2022-10-31T17:57:50;25.10;77.50